Roanoke, VA (24028)

1:35 AM EDT on July 31, 2016 (GMT -0400)
East Gate | | Change Station

Elev 997 ft 37.29 °N, 79.92 °W | Updated 17 seconds ago

Clear
Clear
73.0 °F
Feels Like 73.0 °F
N
0.0
Wind Variable Wind from ENE
Gusts 0.0 mph

Today
High -- | Low -- °F
--% Chance of Precip.
Yesterday
High -- | Low -- °F
Precip. -- in
Pressure 30.01 in
Visibility 10.0 miles
Clouds Clear
Dew Point 71 °F
Humidity 93%
Rainfall 0.00 in
Snow Depth Not available.
6:23 AM 8:27 PM
Waning Crescent, 8% visible
METAR KROA 310454Z 12004KT 10SM CLR 24/21 A3005 RMK AO2 SLP160 T02440211 403220211
Pressure 30.01 in
Visibility 10.0 miles
Clouds Clear
Dew Point 71 °F
Humidity 93%
Rainfall 0.00 in
Snow Depth Not available.
6:23 AM 8:27 PM
Waning Crescent, 8% visible
METAR KROA 310454Z 12004KT 10SM CLR 24/21 A3005 RMK AO2 SLP160 T02440211 403220211

10-Day Weather Forecast

Almanac

Astronomy

Jul. 31, 2016 Rise Set
Actual Time
Civil Twilight
Nautical Twilight
Astronomical Twilight
Moon
Length of Visible Light
Length of Day
Tomorrow will be .
, % of the Moon is Illuminated

Today's Extremes

State Highs State Lows

Community

WunderPhotos

Upload Photos

1,928,766 photos uploaded!

WunderBlog® & News

Nearby

Air Quality

  Air Quality AQ Index Pollutant
Not available.

Snow Depth

Station Depth Elevation

Earthquake Activity

City Distance Mag. Time & Date
Minimum magnitude displayed is 2.5.

Coastal Water Temperatures

Place Temperature

Stations

Nearby Weather Stations

Station Location Temp. Windchill Dew Point Humidity Wind Precip. Elev Updated Type
                   

Watches & Warnings

There are currently no watches in effect.